sensor_id;sensor_type;location;lat;lon;timestamp;P1;durP1;ratioP1;P2;durP2;ratioP2
69837;SDS011;57135;51.992;4.476;2022-07-05T00:00:45;4.89;;;4.89;;
69837;SDS011;57135;51.992;4.476;2022-07-05T00:03:11;4.94;;;4.94;;
69837;SDS011;57135;51.992;4.476;2022-07-05T00:05:36;4.74;;;4.74;;
69837;SDS011;57135;51.992;4.476;2022-07-05T00:08:03;4.91;;;4.91;;
69837;SDS011;57135;51.992;4.476;2022-07-05T00:10:29;4.76;;;4.76;;
69837;SDS011;57135;51.992;4.476;2022-07-05T00:12:55;4.75;;;4.75;;
69837;SDS011;57135;51.992;4.476;2022-07-05T00:15:21;4.96;;;4.96;;
69837;SDS011;57135;51.992;4.476;2022-07-05T00:17:47;5.07;;;5.07;;
69837;SDS011;57135;51.992;4.476;2022-07-05T00:20:13;4.89;;;4.89;;
69837;SDS011;57135;51.992;4.476;2022-07-05T00:22:39;4.94;;;4.94;;
69837;SDS011;57135;51.992;4.476;2022-07-05T00:25:04;4.99;;;4.99;;
69837;SDS011;57135;51.992;4.476;2022-07-05T00:27:31;5.12;;;5.12;;
69837;SDS011;57135;51.992;4.476;2022-07-05T00:29:57;4.81;;;4.81;;
69837;SDS011;57135;51.992;4.476;2022-07-05T00:32:22;4.69;;;4.69;;
69837;SDS011;57135;51.992;4.476;2022-07-05T00:34:48;5.31;;;5.31;;
69837;SDS011;57135;51.992;4.476;2022-07-05T00:37:13;5.41;;;5.41;;
69837;SDS011;57135;51.992;4.476;2022-07-05T00:39:39;5.16;;;5.16;;
69837;SDS011;57135;51.992;4.476;2022-07-05T00:42:05;5.98;;;5.98;;
69837;SDS011;57135;51.992;4.476;2022-07-05T00:44:31;6.34;;;6.34;;
69837;SDS011;57135;51.992;4.476;2022-07-05T00:47:00;6.25;;;6.25;;
69837;SDS011;57135;51.992;4.476;2022-07-05T00:49:30;6.59;;;6.59;;
69837;SDS011;57135;51.992;4.476;2022-07-05T00:51:57;6.40;;;6.40;;
69837;SDS011;57135;51.992;4.476;2022-07-05T00:54:24;6.07;;;6.07;;
69837;SDS011;57135;51.992;4.476;2022-07-05T00:56:49;5.51;;;5.51;;
69837;SDS011;57135;51.992;4.476;2022-07-05T00:59:15;5.57;;;5.57;;
69837;SDS011;57135;51.992;4.476;2022-07-05T01:01:41;5.91;;;5.91;;
69837;SDS011;57135;51.992;4.476;2022-07-05T01:04:06;6.32;;;6.32;;
69837;SDS011;57135;51.992;4.476;2022-07-05T01:06:32;6.33;;;6.33;;
69837;SDS011;57135;51.992;4.476;2022-07-05T01:08:57;6.13;;;6.13;;
69837;SDS011;57135;51.992;4.476;2022-07-05T01:11:24;5.81;;;5.81;;
69837;SDS011;57135;51.992;4.476;2022-07-05T01:13:50;5.94;;;5.94;;
69837;SDS011;57135;51.992;4.476;2022-07-05T01:16:16;5.97;;;5.97;;
69837;SDS011;57135;51.992;4.476;2022-07-05T01:18:43;5.79;;;5.79;;
69837;SDS011;57135;51.992;4.476;2022-07-05T01:21:09;6.01;;;6.01;;
69837;SDS011;57135;51.992;4.476;2022-07-05T01:23:37;6.05;;;6.05;;
69837;SDS011;57135;51.992;4.476;2022-07-05T01:26:03;6.60;;;6.60;;
69837;SDS011;57135;51.992;4.476;2022-07-05T01:28:29;6.40;;;6.40;;
69837;SDS011;57135;51.992;4.476;2022-07-05T01:30:54;5.90;;;5.90;;
69837;SDS011;57135;51.992;4.476;2022-07-05T01:33:26;6.31;;;6.31;;
69837;SDS011;57135;51.992;4.476;2022-07-05T01:35:54;7.00;;;7.00;;
69837;SDS011;57135;51.992;4.476;2022-07-05T01:38:21;6.40;;;6.40;;
69837;SDS011;57135;51.992;4.476;2022-07-05T01:40:46;6.10;;;6.10;;
69837;SDS011;57135;51.992;4.476;2022-07-05T01:43:15;6.20;;;6.20;;
69837;SDS011;57135;51.992;4.476;2022-07-05T01:45:41;6.18;;;6.18;;
69837;SDS011;57135;51.992;4.476;2022-07-05T01:48:13;5.99;;;5.99;;
69837;SDS011;57135;51.992;4.476;2022-07-05T01:50:47;5.78;;;5.78;;
69837;SDS011;57135;51.992;4.476;2022-07-05T01:53:17;6.07;;;6.07;;
69837;SDS011;57135;51.992;4.476;2022-07-05T01:55:44;6.63;;;6.63;;
69837;SDS011;57135;51.992;4.476;2022-07-05T01:58:09;6.50;;;6.50;;
69837;SDS011;57135;51.992;4.476;2022-07-05T02:00:42;6.81;;;6.81;;
69837;SDS011;57135;51.992;4.476;2022-07-05T02:03:08;6.92;;;6.92;;
69837;SDS011;57135;51.992;4.476;2022-07-05T02:05:34;6.55;;;6.55;;
69837;SDS011;57135;51.992;4.476;2022-07-05T02:07:59;6.21;;;6.21;;
69837;SDS011;57135;51.992;4.476;2022-07-05T02:10:25;6.34;;;6.34;;
69837;SDS011;57135;51.992;4.476;2022-07-05T02:12:51;6.42;;;6.42;;
69837;SDS011;57135;51.992;4.476;2022-07-05T02:15:16;6.45;;;6.45;;
69837;SDS011;57135;51.992;4.476;2022-07-05T02:17:41;6.58;;;6.58;;
69837;SDS011;57135;51.992;4.476;2022-07-05T02:20:07;7.29;;;7.29;;
69837;SDS011;57135;51.992;4.476;2022-07-05T02:22:33;8.45;;;8.45;;
69837;SDS011;57135;51.992;4.476;2022-07-05T02:24:59;8.92;;;8.92;;
69837;SDS011;57135;51.992;4.476;2022-07-05T02:27:24;8.69;;;8.68;;
69837;SDS011;57135;51.992;4.476;2022-07-05T02:29:49;9.79;;;9.67;;
69837;SDS011;57135;51.992;4.476;2022-07-05T02:32:15;10.72;;;10.71;;
69837;SDS011;57135;51.992;4.476;2022-07-05T02:34:40;11.01;;;10.83;;
69837;SDS011;57135;51.992;4.476;2022-07-05T02:37:06;9.21;;;9.21;;
69837;SDS011;57135;51.992;4.476;2022-07-05T02:39:32;10.23;;;10.22;;
69837;SDS011;57135;51.992;4.476;2022-07-05T02:41:57;10.94;;;10.92;;
69837;SDS011;57135;51.992;4.476;2022-07-05T02:44:22;11.02;;;10.97;;
69837;SDS011;57135;51.992;4.476;2022-07-05T02:46:48;11.73;;;11.66;;
69837;SDS011;57135;51.992;4.476;2022-07-05T02:49:13;11.09;;;11.07;;
69837;SDS011;57135;51.992;4.476;2022-07-05T02:51:40;10.61;;;10.60;;
69837;SDS011;57135;51.992;4.476;2022-07-05T02:54:05;11.12;;;11.10;;
69837;SDS011;57135;51.992;4.476;2022-07-05T02:56:31;12.20;;;11.96;;
69837;SDS011;57135;51.992;4.476;2022-07-05T02:58:56;13.99;;;13.74;;
69837;SDS011;57135;51.992;4.476;2022-07-05T03:01:22;14.84;;;14.76;;
69837;SDS011;57135;51.992;4.476;2022-07-05T03:03:47;15.71;;;15.39;;
69837;SDS011;57135;51.992;4.476;2022-07-05T03:06:12;16.87;;;16.36;;
69837;SDS011;57135;51.992;4.476;2022-07-05T03:08:38;15.95;;;15.58;;
69837;SDS011;57135;51.992;4.476;2022-07-05T03:11:03;16.05;;;15.68;;
69837;SDS011;57135;51.992;4.476;2022-07-05T03:13:29;14.38;;;14.17;;
69837;SDS011;57135;51.992;4.476;2022-07-05T03:15:54;14.27;;;14.04;;
69837;SDS011;57135;51.992;4.476;2022-07-05T03:18:20;14.29;;;14.11;;
69837;SDS011;57135;51.992;4.476;2022-07-05T03:20:45;14.89;;;14.47;;
69837;SDS011;57135;51.992;4.476;2022-07-05T03:23:11;15.01;;;14.53;;
69837;SDS011;57135;51.992;4.476;2022-07-05T03:25:36;14.79;;;14.48;;
69837;SDS011;57135;51.992;4.476;2022-07-05T03:28:02;15.28;;;14.89;;
69837;SDS011;57135;51.992;4.476;2022-07-05T03:30:27;17.23;;;16.89;;
69837;SDS011;57135;51.992;4.476;2022-07-05T03:32:53;15.63;;;15.38;;
69837;SDS011;57135;51.992;4.476;2022-07-05T03:35:18;15.12;;;14.92;;
69837;SDS011;57135;51.992;4.476;2022-07-05T03:37:44;14.85;;;14.73;;
69837;SDS011;57135;51.992;4.476;2022-07-05T03:40:10;13.83;;;13.64;;
69837;SDS011;57135;51.992;4.476;2022-07-05T03:42:35;13.41;;;13.05;;
69837;SDS011;57135;51.992;4.476;2022-07-05T03:45:01;13.87;;;13.52;;
69837;SDS011;57135;51.992;4.476;2022-07-05T03:47:28;13.86;;;13.52;;
69837;SDS011;57135;51.992;4.476;2022-07-05T03:49:53;12.95;;;12.75;;
69837;SDS011;57135;51.992;4.476;2022-07-05T03:52:19;11.68;;;11.64;;
69837;SDS011;57135;51.992;4.476;2022-07-05T03:54:44;12.45;;;12.30;;
69837;SDS011;57135;51.992;4.476;2022-07-05T03:57:10;12.89;;;12.62;;
69837;SDS011;57135;51.992;4.476;2022-07-05T03:59:36;13.81;;;13.44;;
69837;SDS011;57135;51.992;4.476;2022-07-05T04:02:02;14.84;;;14.43;;
69837;SDS011;57135;51.992;4.476;2022-07-05T04:04:28;15.44;;;14.97;;
69837;SDS011;57135;51.992;4.476;2022-07-05T04:06:53;15.54;;;15.23;;
69837;SDS011;57135;51.992;4.476;2022-07-05T04:09:19;16.32;;;15.98;;
69837;SDS011;57135;51.992;4.476;2022-07-05T04:11:44;15.54;;;15.09;;
69837;SDS011;57135;51.992;4.476;2022-07-05T04:14:10;15.16;;;14.92;;
69837;SDS011;57135;51.992;4.476;2022-07-05T04:16:35;16.00;;;15.74;;
69837;SDS011;57135;51.992;4.476;2022-07-05T04:19:01;17.82;;;17.23;;
69837;SDS011;57135;51.992;4.476;2022-07-05T04:21:27;18.07;;;17.71;;
69837;SDS011;57135;51.992;4.476;2022-07-05T04:23:53;17.83;;;17.47;;
69837;SDS011;57135;51.992;4.476;2022-07-05T04:26:19;17.77;;;17.39;;
69837;SDS011;57135;51.992;4.476;2022-07-05T04:28:45;18.04;;;17.64;;
69837;SDS011;57135;51.992;4.476;2022-07-05T04:31:10;18.69;;;18.15;;
69837;SDS011;57135;51.992;4.476;2022-07-05T04:33:36;18.58;;;18.26;;
69837;SDS011;57135;51.992;4.476;2022-07-05T04:36:01;18.60;;;18.22;;
69837;SDS011;57135;51.992;4.476;2022-07-05T04:38:27;18.20;;;17.73;;
69837;SDS011;57135;51.992;4.476;2022-07-05T04:40:53;17.61;;;17.18;;
69837;SDS011;57135;51.992;4.476;2022-07-05T04:43:18;17.93;;;17.46;;
69837;SDS011;57135;51.992;4.476;2022-07-05T04:45:44;17.35;;;16.83;;
69837;SDS011;57135;51.992;4.476;2022-07-05T04:48:09;19.11;;;18.52;;
69837;SDS011;57135;51.992;4.476;2022-07-05T04:50:35;18.40;;;17.92;;
69837;SDS011;57135;51.992;4.476;2022-07-05T04:53:00;17.83;;;17.34;;
69837;SDS011;57135;51.992;4.476;2022-07-05T04:55:26;18.74;;;18.05;;
69837;SDS011;57135;51.992;4.476;2022-07-05T04:57:51;18.38;;;17.94;;
69837;SDS011;57135;51.992;4.476;2022-07-05T05:00:16;17.94;;;17.60;;
69837;SDS011;57135;51.992;4.476;2022-07-05T05:02:42;17.81;;;17.28;;
69837;SDS011;57135;51.992;4.476;2022-07-05T05:05:08;17.62;;;17.09;;
69837;SDS011;57135;51.992;4.476;2022-07-05T05:07:34;17.40;;;16.92;;
69837;SDS011;57135;51.992;4.476;2022-07-05T05:10:01;16.88;;;16.34;;
69837;SDS011;57135;51.992;4.476;2022-07-05T05:12:27;17.11;;;16.60;;
69837;SDS011;57135;51.992;4.476;2022-07-05T05:14:52;16.93;;;16.75;;
69837;SDS011;57135;51.992;4.476;2022-07-05T05:17:18;16.58;;;16.20;;
69837;SDS011;57135;51.992;4.476;2022-07-05T05:19:43;17.14;;;16.64;;
69837;SDS011;57135;51.992;4.476;2022-07-05T05:22:09;15.75;;;15.35;;
69837;SDS011;57135;51.992;4.476;2022-07-05T05:24:35;15.13;;;14.92;;
69837;SDS011;57135;51.992;4.476;2022-07-05T05:27:01;13.37;;;13.25;;
69837;SDS011;57135;51.992;4.476;2022-07-05T05:29:26;13.03;;;12.79;;
69837;SDS011;57135;51.992;4.476;2022-07-05T05:31:52;12.65;;;12.44;;
69837;SDS011;57135;51.992;4.476;2022-07-05T05:34:18;11.77;;;11.61;;
69837;SDS011;57135;51.992;4.476;2022-07-05T05:36:43;9.95;;;9.94;;
69837;SDS011;57135;51.992;4.476;2022-07-05T05:39:09;10.34;;;10.30;;
69837;SDS011;57135;51.992;4.476;2022-07-05T05:41:34;10.83;;;10.63;;
69837;SDS011;57135;51.992;4.476;2022-07-05T05:44:00;10.79;;;10.59;;
69837;SDS011;57135;51.992;4.476;2022-07-05T05:46:26;9.90;;;9.69;;
69837;SDS011;57135;51.992;4.476;2022-07-05T05:48:51;9.13;;;9.06;;
69837;SDS011;57135;51.992;4.476;2022-07-05T05:51:17;9.72;;;9.66;;
69837;SDS011;57135;51.992;4.476;2022-07-05T05:53:42;11.17;;;11.13;;
69837;SDS011;57135;51.992;4.476;2022-07-05T05:56:10;11.19;;;11.16;;
69837;SDS011;57135;51.992;4.476;2022-07-05T05:58:35;11.35;;;11.20;;
69837;SDS011;57135;51.992;4.476;2022-07-05T06:01:01;12.48;;;12.26;;
69837;SDS011;57135;51.992;4.476;2022-07-05T06:03:26;12.07;;;12.04;;
69837;SDS011;57135;51.992;4.476;2022-07-05T06:05:52;12.50;;;12.44;;
69837;SDS011;57135;51.992;4.476;2022-07-05T06:08:18;12.20;;;11.92;;
69837;SDS011;57135;51.992;4.476;2022-07-05T06:10:44;11.99;;;11.85;;
69837;SDS011;57135;51.992;4.476;2022-07-05T06:13:11;10.14;;;10.08;;
69837;SDS011;57135;51.992;4.476;2022-07-05T06:15:38;8.81;;;8.80;;
69837;SDS011;57135;51.992;4.476;2022-07-05T06:18:04;8.87;;;8.87;;
69837;SDS011;57135;51.992;4.476;2022-07-05T06:20:31;7.73;;;7.72;;
69837;SDS011;57135;51.992;4.476;2022-07-05T06:22:58;7.50;;;7.44;;
69837;SDS011;57135;51.992;4.476;2022-07-05T06:25:25;6.37;;;6.37;;
69837;SDS011;57135;51.992;4.476;2022-07-05T06:27:55;6.54;;;6.54;;
69837;SDS011;57135;51.992;4.476;2022-07-05T06:30:22;5.64;;;5.64;;
69837;SDS011;57135;51.992;4.476;2022-07-05T06:32:50;5.23;;;5.23;;
69837;SDS011;57135;51.992;4.476;2022-07-05T06:35:15;4.87;;;4.87;;
69837;SDS011;57135;51.992;4.476;2022-07-05T06:37:54;4.28;;;4.28;;
69837;SDS011;57135;51.992;4.476;2022-07-05T06:40:43;3.76;;;3.76;;
69837;SDS011;57135;51.992;4.476;2022-07-05T06:43:10;3.17;;;3.17;;
69837;SDS011;57135;51.992;4.476;2022-07-05T06:45:37;2.93;;;2.93;;
69837;SDS011;57135;51.992;4.476;2022-07-05T06:48:07;2.90;;;2.90;;
69837;SDS011;57135;51.992;4.476;2022-07-05T06:50:35;3.04;;;3.04;;
69837;SDS011;57135;51.992;4.476;2022-07-05T06:53:02;2.94;;;2.94;;
69837;SDS011;57135;51.992;4.476;2022-07-05T06:55:28;2.60;;;2.60;;
69837;SDS011;57135;51.992;4.476;2022-07-05T06:57:58;2.47;;;2.47;;
69837;SDS011;57135;51.992;4.476;2022-07-05T07:00:25;2.61;;;2.61;;
69837;SDS011;57135;51.992;4.476;2022-07-05T07:02:51;2.46;;;2.46;;
69837;SDS011;57135;51.992;4.476;2022-07-05T07:05:17;2.54;;;2.54;;
69837;SDS011;57135;51.992;4.476;2022-07-05T07:07:42;2.58;;;2.58;;
69837;SDS011;57135;51.992;4.476;2022-07-05T07:10:26;2.17;;;2.17;;
69837;SDS011;57135;51.992;4.476;2022-07-05T07:12:53;1.77;;;1.77;;
69837;SDS011;57135;51.992;4.476;2022-07-05T07:15:19;1.81;;;1.81;;
69837;SDS011;57135;51.992;4.476;2022-07-05T07:17:44;1.95;;;1.95;;
69837;SDS011;57135;51.992;4.476;2022-07-05T07:20:10;1.67;;;1.67;;
69837;SDS011;57135;51.992;4.476;2022-07-05T07:22:36;1.56;;;1.55;;
69837;SDS011;57135;51.992;4.476;2022-07-05T07:25:01;1.86;;;1.80;;
69837;SDS011;57135;51.992;4.476;2022-07-05T07:27:27;1.53;;;1.52;;
69837;SDS011;57135;51.992;4.476;2022-07-05T07:29:53;1.59;;;1.59;;
69837;SDS011;57135;51.992;4.476;2022-07-05T07:32:18;1.56;;;1.56;;
69837;SDS011;57135;51.992;4.476;2022-07-05T07:34:44;1.67;;;1.67;;
69837;SDS011;57135;51.992;4.476;2022-07-05T07:37:10;1.37;;;1.36;;
69837;SDS011;57135;51.992;4.476;2022-07-05T07:39:38;1.35;;;1.35;;
69837;SDS011;57135;51.992;4.476;2022-07-05T07:42:05;1.51;;;1.51;;
69837;SDS011;57135;51.992;4.476;2022-07-05T07:44:31;1.35;;;1.35;;
69837;SDS011;57135;51.992;4.476;2022-07-05T07:46:57;1.24;;;1.24;;
69837;SDS011;57135;51.992;4.476;2022-07-05T07:49:22;1.29;;;1.29;;
69837;SDS011;57135;51.992;4.476;2022-07-05T07:51:48;1.38;;;1.38;;
69837;SDS011;57135;51.992;4.476;2022-07-05T07:54:13;1.30;;;1.30;;
69837;SDS011;57135;51.992;4.476;2022-07-05T07:56:38;1.41;;;1.41;;
69837;SDS011;57135;51.992;4.476;2022-07-05T07:59:04;1.28;;;1.26;;
69837;SDS011;57135;51.992;4.476;2022-07-05T08:01:29;1.28;;;1.22;;
69837;SDS011;57135;51.992;4.476;2022-07-05T08:03:56;1.35;;;1.30;;
69837;SDS011;57135;51.992;4.476;2022-07-05T08:06:22;1.54;;;1.45;;
69837;SDS011;57135;51.992;4.476;2022-07-05T08:08:47;1.55;;;1.51;;
69837;SDS011;57135;51.992;4.476;2022-07-05T08:11:13;1.43;;;1.40;;
69837;SDS011;57135;51.992;4.476;2022-07-05T08:13:39;1.32;;;1.30;;
69837;SDS011;57135;51.992;4.476;2022-07-05T08:16:06;1.48;;;1.43;;
69837;SDS011;57135;51.992;4.476;2022-07-05T08:18:32;1.57;;;1.50;;
69837;SDS011;57135;51.992;4.476;2022-07-05T08:21:16;1.50;;;1.46;;
69837;SDS011;57135;51.992;4.476;2022-07-05T08:24:01;1.65;;;1.62;;
69837;SDS011;57135;51.992;4.476;2022-07-05T08:26:28;1.48;;;1.41;;
69837;SDS011;57135;51.992;4.476;2022-07-05T08:28:56;1.56;;;1.47;;
69837;SDS011;57135;51.992;4.476;2022-07-05T08:31:26;1.64;;;1.55;;
69837;SDS011;57135;51.992;4.476;2022-07-05T08:33:53;1.55;;;1.48;;
69837;SDS011;57135;51.992;4.476;2022-07-05T08:36:19;1.59;;;1.54;;
69837;SDS011;57135;51.992;4.476;2022-07-05T08:38:44;1.42;;;1.39;;
69837;SDS011;57135;51.992;4.476;2022-07-05T08:41:10;1.39;;;1.38;;
69837;SDS011;57135;51.992;4.476;2022-07-05T08:43:37;1.41;;;1.38;;
69837;SDS011;57135;51.992;4.476;2022-07-05T08:46:05;1.34;;;1.30;;
69837;SDS011;57135;51.992;4.476;2022-07-05T08:48:36;1.64;;;1.57;;
69837;SDS011;57135;51.992;4.476;2022-07-05T08:51:08;1.60;;;1.54;;
69837;SDS011;57135;51.992;4.476;2022-07-05T08:53:40;1.60;;;1.54;;
69837;SDS011;57135;51.992;4.476;2022-07-05T08:56:09;1.46;;;1.39;;
69837;SDS011;57135;51.992;4.476;2022-07-05T08:58:36;1.57;;;1.50;;
69837;SDS011;57135;51.992;4.476;2022-07-05T09:01:02;1.46;;;1.41;;
69837;SDS011;57135;51.992;4.476;2022-07-05T09:03:33;1.51;;;1.45;;
69837;SDS011;57135;51.992;4.476;2022-07-05T09:06:03;1.56;;;1.48;;
69837;SDS011;57135;51.992;4.476;2022-07-05T09:08:32;1.46;;;1.40;;
69837;SDS011;57135;51.992;4.476;2022-07-05T09:11:04;1.68;;;1.60;;
69837;SDS011;57135;51.992;4.476;2022-07-05T09:13:33;1.82;;;1.71;;
69837;SDS011;57135;51.992;4.476;2022-07-05T09:16:00;1.55;;;1.53;;
69837;SDS011;57135;51.992;4.476;2022-07-05T09:21:10;1.62;;;1.52;;
69837;SDS011;57135;51.992;4.476;2022-07-05T09:23:40;1.67;;;1.58;;
69837;SDS011;57135;51.992;4.476;2022-07-05T09:26:05;1.73;;;1.63;;
69837;SDS011;57135;51.992;4.476;2022-07-05T09:28:31;3.08;;;2.98;;
69837;SDS011;57135;51.992;4.476;2022-07-05T09:30:56;1.51;;;1.51;;
69837;SDS011;57135;51.992;4.476;2022-07-05T09:33:22;1.50;;;1.50;;
69837;SDS011;57135;51.992;4.476;2022-07-05T09:35:51;1.93;;;1.86;;
69837;SDS011;57135;51.992;4.476;2022-07-05T09:38:20;1.72;;;1.65;;
69837;SDS011;57135;51.992;4.476;2022-07-05T09:40:54;1.44;;;1.41;;
69837;SDS011;57135;51.992;4.476;2022-07-05T09:43:28;2.10;;;1.94;;
69837;SDS011;57135;51.992;4.476;2022-07-05T09:45:58;2.71;;;2.37;;
69837;SDS011;57135;51.992;4.476;2022-07-05T09:48:25;5.79;;;4.21;;
69837;SDS011;57135;51.992;4.476;2022-07-05T09:50:53;7.17;;;4.68;;
69837;SDS011;57135;51.992;4.476;2022-07-05T09:53:44;12.83;;;7.99;;
69837;SDS011;57135;51.992;4.476;2022-07-05T09:56:10;7.61;;;4.70;;
69837;SDS011;57135;51.992;4.476;2022-07-05T09:58:35;3.98;;;2.66;;
69837;SDS011;57135;51.992;4.476;2022-07-05T10:01:01;3.52;;;2.53;;
69837;SDS011;57135;51.992;4.476;2022-07-05T10:04:02;2.46;;;1.92;;
69837;SDS011;57135;51.992;4.476;2022-07-05T10:06:29;2.45;;;1.99;;
69837;SDS011;57135;51.992;4.476;2022-07-05T10:08:57;2.05;;;1.74;;
69837;SDS011;57135;51.992;4.476;2022-07-05T10:11:24;1.90;;;1.68;;
69837;SDS011;57135;51.992;4.476;2022-07-05T10:13:51;1.86;;;1.68;;
69837;SDS011;57135;51.992;4.476;2022-07-05T10:16:18;1.70;;;1.61;;
69837;SDS011;57135;51.992;4.476;2022-07-05T10:18:46;1.75;;;1.65;;
69837;SDS011;57135;51.992;4.476;2022-07-05T10:21:15;1.82;;;1.69;;
69837;SDS011;57135;51.992;4.476;2022-07-05T10:23:46;1.70;;;1.59;;
69837;SDS011;57135;51.992;4.476;2022-07-05T10:26:15;1.67;;;1.58;;
69837;SDS011;57135;51.992;4.476;2022-07-05T10:28:41;1.53;;;1.43;;
69837;SDS011;57135;51.992;4.476;2022-07-05T10:31:15;1.52;;;1.48;;
69837;SDS011;57135;51.992;4.476;2022-07-05T10:33:41;1.33;;;1.32;;
69837;SDS011;57135;51.992;4.476;2022-07-05T10:36:09;1.62;;;1.57;;
69837;SDS011;57135;51.992;4.476;2022-07-05T10:38:36;1.41;;;1.39;;
69837;SDS011;57135;51.992;4.476;2022-07-05T10:41:04;1.63;;;1.63;;
69837;SDS011;57135;51.992;4.476;2022-07-05T10:43:32;1.69;;;1.59;;
69837;SDS011;57135;51.992;4.476;2022-07-05T10:45:57;1.65;;;1.51;;
69837;SDS011;57135;51.992;4.476;2022-07-05T10:48:27;1.71;;;1.57;;
69837;SDS011;57135;51.992;4.476;2022-07-05T11:03:41;1.40;;;1.35;;
69837;SDS011;57135;51.992;4.476;2022-07-05T11:06:08;1.19;;;1.15;;
69837;SDS011;57135;51.992;4.476;2022-07-05T11:14:00;1.33;;;1.25;;
69837;SDS011;57135;51.992;4.476;2022-07-05T11:22:17;1.34;;;1.30;;
69837;SDS011;57135;51.992;4.476;2022-07-05T11:24:36;1.00;;;1.00;;
69837;SDS011;57135;51.992;4.476;2022-07-05T11:27:03;1.03;;;1.03;;
69837;SDS011;57135;51.992;4.476;2022-07-05T11:29:41;0.96;;;0.96;;
69837;SDS011;57135;51.992;4.476;2022-07-05T11:34:49;0.96;;;0.96;;
69837;SDS011;57135;51.992;4.476;2022-07-05T11:37:23;1.05;;;1.05;;
69837;SDS011;57135;51.992;4.476;2022-07-05T11:42:37;1.00;;;1.00;;
69837;SDS011;57135;51.992;4.476;2022-07-05T11:45:10;0.97;;;0.97;;
69837;SDS011;57135;51.992;4.476;2022-07-05T11:47:39;0.98;;;0.98;;
69837;SDS011;57135;51.992;4.476;2022-07-05T11:50:06;1.04;;;1.04;;
69837;SDS011;57135;51.992;4.476;2022-07-05T11:52:33;1.15;;;1.15;;
69837;SDS011;57135;51.992;4.476;2022-07-05T11:55:00;1.18;;;1.18;;
69837;SDS011;57135;51.992;4.476;2022-07-05T11:57:31;1.43;;;1.43;;
69837;SDS011;57135;51.992;4.476;2022-07-05T11:59:56;1.54;;;1.54;;
69837;SDS011;57135;51.992;4.476;2022-07-05T12:02:21;1.17;;;1.17;;
69837;SDS011;57135;51.992;4.476;2022-07-05T12:04:54;0.97;;;0.97;;
69837;SDS011;57135;51.992;4.476;2022-07-05T12:07:27;0.96;;;0.96;;
69837;SDS011;57135;51.992;4.476;2022-07-05T12:09:53;1.23;;;1.23;;
69837;SDS011;57135;51.992;4.476;2022-07-05T12:12:38;2.66;;;2.51;;
69837;SDS011;57135;51.992;4.476;2022-07-05T12:15:10;3.00;;;2.58;;
69837;SDS011;57135;51.992;4.476;2022-07-05T12:17:38;1.98;;;1.72;;
69837;SDS011;57135;51.992;4.476;2022-07-05T12:20:07;1.28;;;1.15;;
69837;SDS011;57135;51.992;4.476;2022-07-05T12:22:35;1.39;;;1.30;;
69837;SDS011;57135;51.992;4.476;2022-07-05T12:25:05;1.53;;;1.45;;
69837;SDS011;57135;51.992;4.476;2022-07-05T12:27:33;1.28;;;1.22;;
69837;SDS011;57135;51.992;4.476;2022-07-05T12:30:00;1.28;;;1.23;;
69837;SDS011;57135;51.992;4.476;2022-07-05T12:32:27;1.38;;;1.36;;
69837;SDS011;57135;51.992;4.476;2022-07-05T12:34:53;1.21;;;1.21;;
69837;SDS011;57135;51.992;4.476;2022-07-05T12:37:22;1.36;;;1.36;;
69837;SDS011;57135;51.992;4.476;2022-07-05T12:39:50;1.30;;;1.30;;
69837;SDS011;57135;51.992;4.476;2022-07-05T12:42:34;1.41;;;1.41;;
69837;SDS011;57135;51.992;4.476;2022-07-05T12:45:11;1.38;;;1.38;;
69837;SDS011;57135;51.992;4.476;2022-07-05T12:47:48;1.31;;;1.31;;
69837;SDS011;57135;51.992;4.476;2022-07-05T12:50:21;1.43;;;1.43;;
69837;SDS011;57135;51.992;4.476;2022-07-05T12:53:04;1.27;;;1.27;;
69837;SDS011;57135;51.992;4.476;2022-07-05T12:55:50;1.28;;;1.28;;
69837;SDS011;57135;51.992;4.476;2022-07-05T12:58:48;1.53;;;1.53;;
69837;SDS011;57135;51.992;4.476;2022-07-05T13:01:23;1.32;;;1.32;;
69837;SDS011;57135;51.992;4.476;2022-07-05T13:04:00;1.34;;;1.34;;
69837;SDS011;57135;51.992;4.476;2022-07-05T13:14:50;1.41;;;1.41;;
69837;SDS011;57135;51.992;4.476;2022-07-05T13:17:17;1.63;;;1.63;;
69837;SDS011;57135;51.992;4.476;2022-07-05T13:19:44;1.53;;;1.53;;
69837;SDS011;57135;51.992;4.476;2022-07-05T13:22:11;1.64;;;1.64;;
69837;SDS011;57135;51.992;4.476;2022-07-05T13:24:37;1.64;;;1.64;;
69837;SDS011;57135;51.992;4.476;2022-07-05T13:27:03;1.75;;;1.75;;
69837;SDS011;57135;51.992;4.476;2022-07-05T13:29:30;2.13;;;2.13;;
69837;SDS011;57135;51.992;4.476;2022-07-05T13:31:55;1.86;;;1.86;;
69837;SDS011;57135;51.992;4.476;2022-07-05T13:34:21;1.88;;;1.88;;
69837;SDS011;57135;51.992;4.476;2022-07-05T13:36:55;2.43;;;2.43;;
69837;SDS011;57135;51.992;4.476;2022-07-05T13:39:22;2.34;;;2.34;;
69837;SDS011;57135;51.992;4.476;2022-07-05T13:41:49;2.23;;;2.23;;
69837;SDS011;57135;51.992;4.476;2022-07-05T13:44:17;2.11;;;2.11;;
69837;SDS011;57135;51.992;4.476;2022-07-05T13:46:43;2.02;;;2.02;;
69837;SDS011;57135;51.992;4.476;2022-07-05T13:49:09;2.10;;;2.10;;
69837;SDS011;57135;51.992;4.476;2022-07-05T13:51:34;1.95;;;1.95;;
69837;SDS011;57135;51.992;4.476;2022-07-05T13:54:00;1.85;;;1.85;;
69837;SDS011;57135;51.992;4.476;2022-07-05T13:56:25;1.76;;;1.76;;
69837;SDS011;57135;51.992;4.476;2022-07-05T13:58:52;1.88;;;1.88;;
69837;SDS011;57135;51.992;4.476;2022-07-05T14:01:18;1.84;;;1.84;;
69837;SDS011;57135;51.992;4.476;2022-07-05T14:03:47;2.04;;;2.04;;
69837;SDS011;57135;51.992;4.476;2022-07-05T14:06:12;2.10;;;2.10;;
69837;SDS011;57135;51.992;4.476;2022-07-05T14:08:38;2.16;;;2.16;;
69837;SDS011;57135;51.992;4.476;2022-07-05T14:11:03;2.16;;;2.16;;
69837;SDS011;57135;51.992;4.476;2022-07-05T14:13:29;1.96;;;1.96;;
69837;SDS011;57135;51.992;4.476;2022-07-05T14:15:55;2.11;;;2.11;;
69837;SDS011;57135;51.992;4.476;2022-07-05T14:18:21;2.06;;;2.06;;
69837;SDS011;57135;51.992;4.476;2022-07-05T14:20:47;2.00;;;2.00;;
69837;SDS011;57135;51.992;4.476;2022-07-05T14:23:13;2.14;;;2.14;;
69837;SDS011;57135;51.992;4.476;2022-07-05T14:25:39;2.07;;;2.07;;
69837;SDS011;57135;51.992;4.476;2022-07-05T14:28:05;2.36;;;2.36;;
69837;SDS011;57135;51.992;4.476;2022-07-05T14:30:35;2.67;;;2.67;;
69837;SDS011;57135;51.992;4.476;2022-07-05T14:33:01;2.78;;;2.78;;
69837;SDS011;57135;51.992;4.476;2022-07-05T14:35:28;2.77;;;2.77;;
69837;SDS011;57135;51.992;4.476;2022-07-05T14:37:54;2.24;;;2.24;;
69837;SDS011;57135;51.992;4.476;2022-07-05T14:40:19;2.13;;;2.13;;
69837;SDS011;57135;51.992;4.476;2022-07-05T14:42:45;2.16;;;2.16;;
69837;SDS011;57135;51.992;4.476;2022-07-05T14:45:10;3.33;;;3.20;;
69837;SDS011;57135;51.992;4.476;2022-07-05T14:47:36;2.31;;;2.16;;
69837;SDS011;57135;51.992;4.476;2022-07-05T14:50:02;2.40;;;2.29;;
69837;SDS011;57135;51.992;4.476;2022-07-05T14:52:27;2.23;;;2.22;;
69837;SDS011;57135;51.992;4.476;2022-07-05T14:54:54;2.70;;;2.70;;
69837;SDS011;57135;51.992;4.476;2022-07-05T14:57:20;2.55;;;2.55;;
69837;SDS011;57135;51.992;4.476;2022-07-05T14:59:45;2.64;;;2.64;;
69837;SDS011;57135;51.992;4.476;2022-07-05T15:02:11;2.84;;;2.82;;
69837;SDS011;57135;51.992;4.476;2022-07-05T15:04:37;3.10;;;2.95;;
69837;SDS011;57135;51.992;4.476;2022-07-05T15:07:03;3.52;;;3.38;;
69837;SDS011;57135;51.992;4.476;2022-07-05T15:09:29;3.05;;;2.93;;
69837;SDS011;57135;51.992;4.476;2022-07-05T15:11:54;2.55;;;2.55;;
69837;SDS011;57135;51.992;4.476;2022-07-05T15:14:20;2.36;;;2.35;;
69837;SDS011;57135;51.992;4.476;2022-07-05T15:16:45;2.21;;;2.21;;
69837;SDS011;57135;51.992;4.476;2022-07-05T15:19:11;2.39;;;2.39;;
69837;SDS011;57135;51.992;4.476;2022-07-05T15:21:36;2.23;;;2.23;;